Hlavní strana
METAR-TAF:

METAR-TAF

Letiště :

Aarhus, Dánsko

zeměpisná šířka: 56-18N, zeměpisná délka: 010-37E, výška: 23 m

Aktuální stav počasí

Zpráva byla vytvořena před 15 minutami, v 16:20 UTC
Západní vítr 10 kt
Teplota 4°C
Vlhkost vzduchu 81%
Tlak 998 hPa
Viditelnost 10 km a více

METAR: EKAH 231620Z AUTO 28010KT 9999NDV FEW091/// FEW100/// SCT140/// 04/01 Q0998

Čas: 17:35 (16:35 UTC)

Předpověď počasí

Zpráva byla vytvořena před 5 hodinami a 30 minutami, v 11:05 UTC
Předpověď platná od 23 v 12 UTC do 24 v 12 UTC
Západní vítr 15 kt
Viditelnost 10 km a více
Oblačno až skoro zataženo ve výšce 2500 ft
Dočasný
od 23 v 12 UTC do 23 v 24 UTC
Západní vítr 15 kt s nárazy do 25 kt
Oblačno až skoro zataženo ve výšce 1200 ft
Polojasno ve výšce 2000 ft, Cumulonimbus.
dešťové přeháňky, malé kroupy nebo krupky
Změna
od 24 v 04 UTC do 24 v 06 UTC
Západní vítr 5 kt

TAF: EKAH 231105Z 2312/2412 26015KT 9999 BKN025 TEMPO 2312/2324 26015G25KT SHRAGS BKN012 SCT020CB BECMG 2404/2406 28005KT

Stav a předpovědi počasí z více než 4 000 letišť (zprávy METAR a TAF).

Červené a žluté tečky na mapě představují dostupné meteorologické stanice.

Když kurzor umístíte na tečku, zobrazí se název stanice.

Pak kliknutím zobrazíte stav a předpověď počasí.

Chcete-li změnit mapu, kliknutím na zelené tlačítko se znaménkem +mapu přiblížíte, kliknutím na zelené tlačítko se znaménkem – mapu oddálíte a kliknutím na zelené šipky přejdete na sousední mapy.


METAR-TAF: